sensor_id;sensor_type;location;lat;lon;timestamp;P1;durP1;ratioP1;P2;durP2;ratioP2
30080;SDS011;16902;50.816;12.828;2023-10-08T00:02:41;13.70;;;13.10;;
30080;SDS011;16902;50.816;12.828;2023-10-08T00:07:43;12.50;;;12.00;;
30080;SDS011;16902;50.816;12.828;2023-10-08T00:12:45;13.57;;;12.98;;
30080;SDS011;16902;50.816;12.828;2023-10-08T00:17:49;13.13;;;12.48;;
30080;SDS011;16902;50.816;12.828;2023-10-08T00:22:51;12.82;;;12.27;;
30080;SDS011;16902;50.816;12.828;2023-10-08T00:27:57;12.95;;;12.45;;
30080;SDS011;16902;50.816;12.828;2023-10-08T00:32:59;13.13;;;12.55;;
30080;SDS011;16902;50.816;12.828;2023-10-08T00:38:01;13.05;;;12.48;;
30080;SDS011;16902;50.816;12.828;2023-10-08T00:43:06;12.88;;;12.38;;
30080;SDS011;16902;50.816;12.828;2023-10-08T00:48:11;13.05;;;12.45;;
30080;SDS011;16902;50.816;12.828;2023-10-08T00:53:18;13.32;;;12.73;;
30080;SDS011;16902;50.816;12.828;2023-10-08T00:58:23;12.75;;;12.25;;
30080;SDS011;16902;50.816;12.828;2023-10-08T01:03:28;13.70;;;13.00;;
30080;SDS011;16902;50.816;12.828;2023-10-08T01:08:30;12.80;;;12.27;;
30080;SDS011;16902;50.816;12.828;2023-10-08T01:13:46;13.82;;;13.10;;
30080;SDS011;16902;50.816;12.828;2023-10-08T01:18:48;13.82;;;12.90;;
30080;SDS011;16902;50.816;12.828;2023-10-08T01:23:55;13.35;;;12.75;;
30080;SDS011;16902;50.816;12.828;2023-10-08T01:28:57;13.95;;;13.15;;
30080;SDS011;16902;50.816;12.828;2023-10-08T01:34:04;13.57;;;12.98;;
30080;SDS011;16902;50.816;12.828;2023-10-08T01:39:06;14.15;;;13.40;;
30080;SDS011;16902;50.816;12.828;2023-10-08T01:44:08;13.48;;;12.95;;
30080;SDS011;16902;50.816;12.828;2023-10-08T01:49:10;13.93;;;13.23;;
30080;SDS011;16902;50.816;12.828;2023-10-08T01:54:16;13.68;;;13.07;;
30080;SDS011;16902;50.816;12.828;2023-10-08T01:59:22;13.77;;;13.10;;
30080;SDS011;16902;50.816;12.828;2023-10-08T02:04:25;12.95;;;12.43;;
30080;SDS011;16902;50.816;12.828;2023-10-08T02:09:27;12.68;;;11.88;;
30080;SDS011;16902;50.816;12.828;2023-10-08T02:14:29;13.00;;;12.40;;
30080;SDS011;16902;50.816;12.828;2023-10-08T02:19:33;12.50;;;12.00;;
30080;SDS011;16902;50.816;12.828;2023-10-08T02:24:36;12.13;;;11.60;;
30080;SDS011;16902;50.816;12.828;2023-10-08T02:29:38;11.52;;;11.02;;
30080;SDS011;16902;50.816;12.828;2023-10-08T02:34:41;11.98;;;11.43;;
30080;SDS011;16902;50.816;12.828;2023-10-08T02:39:43;11.77;;;11.18;;
30080;SDS011;16902;50.816;12.828;2023-10-08T02:44:46;12.38;;;11.77;;
30080;SDS011;16902;50.816;12.828;2023-10-08T02:49:48;12.18;;;11.57;;
30080;SDS011;16902;50.816;12.828;2023-10-08T02:54:50;12.68;;;12.15;;
30080;SDS011;16902;50.816;12.828;2023-10-08T02:59:54;12.13;;;11.32;;
30080;SDS011;16902;50.816;12.828;2023-10-08T03:04:57;13.00;;;12.10;;
30080;SDS011;16902;50.816;12.828;2023-10-08T03:10:00;12.00;;;11.50;;
30080;SDS011;16902;50.816;12.828;2023-10-08T03:15:18;11.80;;;11.30;;
30080;SDS011;16902;50.816;12.828;2023-10-08T03:20:32;13.05;;;12.38;;
30080;SDS011;16902;50.816;12.828;2023-10-08T03:25:43;12.00;;;11.45;;
30080;SDS011;16902;50.816;12.828;2023-10-08T03:30:47;11.43;;;10.75;;
30080;SDS011;16902;50.816;12.828;2023-10-08T03:35:52;10.20;;;9.80;;
30080;SDS011;16902;50.816;12.828;2023-10-08T03:40:57;10.20;;;9.80;;
30080;SDS011;16902;50.816;12.828;2023-10-08T03:46:05;9.25;;;8.95;;
30080;SDS011;16902;50.816;12.828;2023-10-08T03:51:17;7.78;;;7.57;;
30080;SDS011;16902;50.816;12.828;2023-10-08T03:56:23;7.60;;;7.35;;
30080;SDS011;16902;50.816;12.828;2023-10-08T04:01:26;7.13;;;6.93;;
30080;SDS011;16902;50.816;12.828;2023-10-08T04:06:33;6.60;;;6.40;;
30080;SDS011;16902;50.816;12.828;2023-10-08T04:11:38;6.68;;;6.47;;
30080;SDS011;16902;50.816;12.828;2023-10-08T04:16:54;6.40;;;6.20;;
30080;SDS011;16902;50.816;12.828;2023-10-08T04:21:56;6.40;;;6.20;;
30080;SDS011;16902;50.816;12.828;2023-10-08T04:26:58;5.95;;;5.75;;
30080;SDS011;16902;50.816;12.828;2023-10-08T04:32:00;6.07;;;5.88;;
30080;SDS011;16902;50.816;12.828;2023-10-08T04:37:03;5.60;;;5.40;;
30080;SDS011;16902;50.816;12.828;2023-10-08T04:42:13;5.70;;;5.50;;
30080;SDS011;16902;50.816;12.828;2023-10-08T04:47:27;5.20;;;5.10;;
30080;SDS011;16902;50.816;12.828;2023-10-08T04:52:34;5.47;;;5.32;;
30080;SDS011;16902;50.816;12.828;2023-10-08T04:57:47;5.38;;;5.28;;
30080;SDS011;16902;50.816;12.828;2023-10-08T05:02:50;5.00;;;4.90;;
30080;SDS011;16902;50.816;12.828;2023-10-08T05:07:55;5.63;;;5.43;;
30080;SDS011;16902;50.816;12.828;2023-10-08T05:13:12;5.20;;;5.10;;
30080;SDS011;16902;50.816;12.828;2023-10-08T05:18:17;4.95;;;4.85;;
30080;SDS011;16902;50.816;12.828;2023-10-08T05:23:19;5.22;;;5.13;;
30080;SDS011;16902;50.816;12.828;2023-10-08T05:28:22;4.97;;;4.88;;
30080;SDS011;16902;50.816;12.828;2023-10-08T05:33:27;5.03;;;4.93;;
30080;SDS011;16902;50.816;12.828;2023-10-08T05:38:51;4.70;;;4.60;;
30080;SDS011;16902;50.816;12.828;2023-10-08T05:44:02;4.30;;;4.20;;
30080;SDS011;16902;50.816;12.828;2023-10-08T05:49:25;4.47;;;4.38;;
30080;SDS011;16902;50.816;12.828;2023-10-08T05:54:40;4.07;;;3.97;;
30080;SDS011;16902;50.816;12.828;2023-10-08T06:00:02;4.70;;;4.60;;
30080;SDS011;16902;50.816;12.828;2023-10-08T06:05:06;4.65;;;4.50;;
30080;SDS011;16902;50.816;12.828;2023-10-08T06:10:16;4.57;;;4.47;;
30080;SDS011;16902;50.816;12.828;2023-10-08T06:15:48;4.55;;;4.45;;
30080;SDS011;16902;50.816;12.828;2023-10-08T06:20:54;4.47;;;4.38;;
30080;SDS011;16902;50.816;12.828;2023-10-08T06:25:57;4.40;;;4.20;;
30080;SDS011;16902;50.816;12.828;2023-10-08T06:31:01;4.30;;;4.20;;
30080;SDS011;16902;50.816;12.828;2023-10-08T06:36:07;4.22;;;4.13;;
30080;SDS011;16902;50.816;12.828;2023-10-08T06:41:12;3.95;;;3.85;;
30080;SDS011;16902;50.816;12.828;2023-10-08T06:46:24;3.70;;;3.60;;
30080;SDS011;16902;50.816;12.828;2023-10-08T06:51:30;4.03;;;3.92;;
30080;SDS011;16902;50.816;12.828;2023-10-08T06:56:35;4.00;;;3.90;;
30080;SDS011;16902;50.816;12.828;2023-10-08T07:01:37;4.13;;;4.03;;
30080;SDS011;16902;50.816;12.828;2023-10-08T07:06:42;4.53;;;4.43;;
30080;SDS011;16902;50.816;12.828;2023-10-08T07:11:52;4.80;;;4.60;;
30080;SDS011;16902;50.816;12.828;2023-10-08T07:16:58;4.45;;;4.35;;
30080;SDS011;16902;50.816;12.828;2023-10-08T07:22:02;4.40;;;4.30;;
30080;SDS011;16902;50.816;12.828;2023-10-08T07:27:05;4.47;;;4.38;;
30080;SDS011;16902;50.816;12.828;2023-10-08T07:32:10;4.25;;;4.15;;
30080;SDS011;16902;50.816;12.828;2023-10-08T07:37:13;4.60;;;4.50;;
30080;SDS011;16902;50.816;12.828;2023-10-08T07:42:15;4.40;;;4.30;;
30080;SDS011;16902;50.816;12.828;2023-10-08T07:47:17;4.50;;;4.40;;
30080;SDS011;16902;50.816;12.828;2023-10-08T07:52:23;4.30;;;4.20;;
30080;SDS011;16902;50.816;12.828;2023-10-08T07:57:25;5.00;;;4.90;;
30080;SDS011;16902;50.816;12.828;2023-10-08T08:02:29;4.70;;;4.60;;
30080;SDS011;16902;50.816;12.828;2023-10-08T08:07:32;4.78;;;4.68;;
30080;SDS011;16902;50.816;12.828;2023-10-08T08:12:34;4.13;;;4.00;;
30080;SDS011;16902;50.816;12.828;2023-10-08T08:17:37;4.35;;;4.25;;
30080;SDS011;16902;50.816;12.828;2023-10-08T08:22:38;4.40;;;4.30;;
30080;SDS011;16902;50.816;12.828;2023-10-08T08:27:42;4.20;;;4.10;;
30080;SDS011;16902;50.816;12.828;2023-10-08T08:32:54;4.57;;;4.38;;
30080;SDS011;16902;50.816;12.828;2023-10-08T08:37:58;4.70;;;4.50;;
30080;SDS011;16902;50.816;12.828;2023-10-08T08:43:00;4.90;;;4.70;;
30080;SDS011;16902;50.816;12.828;2023-10-08T08:48:06;4.80;;;4.60;;
30080;SDS011;16902;50.816;12.828;2023-10-08T08:53:08;4.80;;;4.60;;
30080;SDS011;16902;50.816;12.828;2023-10-08T08:58:12;4.32;;;4.22;;
30080;SDS011;16902;50.816;12.828;2023-10-08T09:03:14;4.57;;;4.43;;
30080;SDS011;16902;50.816;12.828;2023-10-08T09:08:16;5.13;;;4.93;;
30080;SDS011;16902;50.816;12.828;2023-10-08T09:13:20;5.32;;;5.13;;
30080;SDS011;16902;50.816;12.828;2023-10-08T09:18:24;4.75;;;4.65;;
30080;SDS011;16902;50.816;12.828;2023-10-08T09:23:29;4.90;;;4.80;;
30080;SDS011;16902;50.816;12.828;2023-10-08T09:28:31;5.35;;;5.15;;
30080;SDS011;16902;50.816;12.828;2023-10-08T09:33:36;5.63;;;5.43;;
30080;SDS011;16902;50.816;12.828;2023-10-08T09:38:38;5.78;;;5.57;;
30080;SDS011;16902;50.816;12.828;2023-10-08T09:43:41;6.15;;;5.90;;
30080;SDS011;16902;50.816;12.828;2023-10-08T09:48:44;6.57;;;6.28;;
30080;SDS011;16902;50.816;12.828;2023-10-08T09:54:03;6.13;;;5.80;;
30080;SDS011;16902;50.816;12.828;2023-10-08T09:59:13;7.00;;;6.80;;
30080;SDS011;16902;50.816;12.828;2023-10-08T10:04:23;6.63;;;6.43;;
30080;SDS011;16902;50.816;12.828;2023-10-08T10:09:33;7.68;;;7.38;;
30080;SDS011;16902;50.816;12.828;2023-10-08T10:14:45;7.40;;;7.10;;
30080;SDS011;16902;50.816;12.828;2023-10-08T10:19:50;7.55;;;7.35;;
30080;SDS011;16902;50.816;12.828;2023-10-08T10:25:01;7.50;;;7.20;;
30080;SDS011;16902;50.816;12.828;2023-10-08T10:30:21;8.05;;;7.75;;
30080;SDS011;16902;50.816;12.828;2023-10-08T10:35:25;8.07;;;7.78;;
30080;SDS011;16902;50.816;12.828;2023-10-08T10:40:29;8.15;;;7.85;;
30080;SDS011;16902;50.816;12.828;2023-10-08T10:45:41;10.10;;;9.70;;
30080;SDS011;16902;50.816;12.828;2023-10-08T10:50:49;9.00;;;8.70;;
30080;SDS011;16902;50.816;12.828;2023-10-08T10:56:07;9.38;;;8.98;;
30080;SDS011;16902;50.816;12.828;2023-10-08T11:01:12;10.23;;;9.82;;
30080;SDS011;16902;50.816;12.828;2023-10-08T11:06:26;10.88;;;10.48;;
30080;SDS011;16902;50.816;12.828;2023-10-08T11:11:28;10.80;;;10.32;;
30080;SDS011;16902;50.816;12.828;2023-10-08T11:16:31;10.93;;;10.43;;
30080;SDS011;16902;50.816;12.828;2023-10-08T11:26:52;11.70;;;11.23;;
30080;SDS011;16902;50.816;12.828;2023-10-08T11:32:07;12.50;;;11.90;;
30080;SDS011;16902;50.816;12.828;2023-10-08T11:37:14;13.50;;;12.90;;
30080;SDS011;16902;50.816;12.828;2023-10-08T11:42:21;13.38;;;12.88;;
30080;SDS011;16902;50.816;12.828;2023-10-08T11:47:29;12.68;;;12.18;;
30080;SDS011;16902;50.816;12.828;2023-10-08T11:52:37;13.40;;;12.70;;
30080;SDS011;16902;50.816;12.828;2023-10-08T11:57:46;13.32;;;12.65;;
30080;SDS011;16902;50.816;12.828;2023-10-08T12:02:51;12.98;;;12.48;;
30080;SDS011;16902;50.816;12.828;2023-10-08T12:07:57;13.05;;;12.55;;
30080;SDS011;16902;50.816;12.828;2023-10-08T12:12:59;14.00;;;13.50;;
30080;SDS011;16902;50.816;12.828;2023-10-08T12:18:02;14.05;;;13.43;;
30080;SDS011;16902;50.816;12.828;2023-10-08T12:23:11;13.00;;;12.50;;
30080;SDS011;16902;50.816;12.828;2023-10-08T12:28:20;13.88;;;13.38;;
30080;SDS011;16902;50.816;12.828;2023-10-08T12:33:22;14.43;;;13.82;;
30080;SDS011;16902;50.816;12.828;2023-10-08T12:38:27;15.23;;;14.43;;
30080;SDS011;16902;50.816;12.828;2023-10-08T12:43:29;14.20;;;13.60;;
30080;SDS011;16902;50.816;12.828;2023-10-08T12:48:32;13.90;;;13.40;;
30080;SDS011;16902;50.816;12.828;2023-10-08T12:53:34;13.73;;;13.23;;
30080;SDS011;16902;50.816;12.828;2023-10-08T12:58:38;14.35;;;13.75;;
30080;SDS011;16902;50.816;12.828;2023-10-08T13:03:44;13.88;;;13.27;;
30080;SDS011;16902;50.816;12.828;2023-10-08T13:08:53;14.23;;;13.73;;
30080;SDS011;16902;50.816;12.828;2023-10-08T13:13:58;14.48;;;13.88;;
30080;SDS011;16902;50.816;12.828;2023-10-08T13:19:00;15.10;;;14.50;;
30080;SDS011;16902;50.816;12.828;2023-10-08T13:24:03;14.85;;;14.25;;
30080;SDS011;16902;50.816;12.828;2023-10-08T13:29:10;15.27;;;14.68;;
30080;SDS011;16902;50.816;12.828;2023-10-08T13:34:12;15.27;;;14.57;;
30080;SDS011;16902;50.816;12.828;2023-10-08T13:39:18;14.35;;;13.77;;
30080;SDS011;16902;50.816;12.828;2023-10-08T13:44:20;14.57;;;13.98;;
30080;SDS011;16902;50.816;12.828;2023-10-08T13:49:31;14.68;;;14.07;;
30080;SDS011;16902;50.816;12.828;2023-10-08T13:54:33;14.98;;;14.27;;
30080;SDS011;16902;50.816;12.828;2023-10-08T13:59:40;15.05;;;14.27;;
30080;SDS011;16902;50.816;12.828;2023-10-08T14:04:44;14.95;;;14.35;;
30080;SDS011;16902;50.816;12.828;2023-10-08T14:09:47;15.02;;;14.43;;
30080;SDS011;16902;50.816;12.828;2023-10-08T14:14:52;15.38;;;14.77;;
30080;SDS011;16902;50.816;12.828;2023-10-08T14:19:54;15.35;;;14.45;;
30080;SDS011;16902;50.816;12.828;2023-10-08T14:25:01;15.60;;;14.73;;
30080;SDS011;16902;50.816;12.828;2023-10-08T14:30:04;15.00;;;14.38;;
30080;SDS011;16902;50.816;12.828;2023-10-08T14:35:07;14.35;;;13.85;;
30080;SDS011;16902;50.816;12.828;2023-10-08T14:40:28;14.40;;;13.80;;
30080;SDS011;16902;50.816;12.828;2023-10-08T14:45:48;15.02;;;14.43;;
30080;SDS011;16902;50.816;12.828;2023-10-08T14:50:50;14.35;;;13.80;;
30080;SDS011;16902;50.816;12.828;2023-10-08T14:55:53;13.50;;;13.00;;
30080;SDS011;16902;50.816;12.828;2023-10-08T15:00:55;13.30;;;12.80;;
30080;SDS011;16902;50.816;12.828;2023-10-08T15:05:57;13.77;;;13.15;;
30080;SDS011;16902;50.816;12.828;2023-10-08T15:11:00;14.18;;;13.57;;
30080;SDS011;16902;50.816;12.828;2023-10-08T15:16:01;14.27;;;13.68;;
30080;SDS011;16902;50.816;12.828;2023-10-08T15:21:05;14.13;;;13.52;;
30080;SDS011;16902;50.816;12.828;2023-10-08T15:26:09;13.32;;;12.82;;
30080;SDS011;16902;50.816;12.828;2023-10-08T15:31:13;13.07;;;12.48;;
30080;SDS011;16902;50.816;12.828;2023-10-08T15:36:15;13.10;;;12.60;;
30080;SDS011;16902;50.816;12.828;2023-10-08T15:41:17;12.60;;;12.10;;
30080;SDS011;16902;50.816;12.828;2023-10-08T15:46:20;12.20;;;11.80;;
30080;SDS011;16902;50.816;12.828;2023-10-08T15:51:22;12.30;;;11.80;;
30080;SDS011;16902;50.816;12.828;2023-10-08T15:56:27;12.10;;;11.60;;
30080;SDS011;16902;50.816;12.828;2023-10-08T16:01:29;13.10;;;12.40;;
30080;SDS011;16902;50.816;12.828;2023-10-08T16:06:31;11.23;;;10.75;;
30080;SDS011;16902;50.816;12.828;2023-10-08T16:11:33;10.38;;;9.98;;
30080;SDS011;16902;50.816;12.828;2023-10-08T16:16:36;10.82;;;10.35;;
30080;SDS011;16902;50.816;12.828;2023-10-08T16:21:38;11.85;;;11.23;;
30080;SDS011;16902;50.816;12.828;2023-10-08T16:26:41;11.90;;;11.07;;
30080;SDS011;16902;50.816;12.828;2023-10-08T16:31:43;10.32;;;9.82;;
30080;SDS011;16902;50.816;12.828;2023-10-08T16:36:46;10.20;;;9.80;;
30080;SDS011;16902;50.816;12.828;2023-10-08T16:41:48;9.25;;;8.85;;
30080;SDS011;16902;50.816;12.828;2023-10-08T16:46:50;9.20;;;8.80;;
30080;SDS011;16902;50.816;12.828;2023-10-08T16:51:54;8.98;;;8.40;;
30080;SDS011;16902;50.816;12.828;2023-10-08T16:56:56;9.23;;;8.82;;
30080;SDS011;16902;50.816;12.828;2023-10-08T17:01:58;9.30;;;8.80;;
30080;SDS011;16902;50.816;12.828;2023-10-08T17:07:00;8.38;;;8.07;;
30080;SDS011;16902;50.816;12.828;2023-10-08T17:12:02;8.18;;;7.88;;
30080;SDS011;16902;50.816;12.828;2023-10-08T17:17:04;8.07;;;7.78;;
30080;SDS011;16902;50.816;12.828;2023-10-08T17:22:06;8.77;;;8.38;;
30080;SDS011;16902;50.816;12.828;2023-10-08T17:27:08;8.32;;;7.93;;
30080;SDS011;16902;50.816;12.828;2023-10-08T17:32:15;8.40;;;8.00;;
30080;SDS011;16902;50.816;12.828;2023-10-08T17:37:17;8.93;;;8.52;;
30080;SDS011;16902;50.816;12.828;2023-10-08T17:42:21;8.73;;;8.32;;
30080;SDS011;16902;50.816;12.828;2023-10-08T17:47:23;8.38;;;8.07;;
30080;SDS011;16902;50.816;12.828;2023-10-08T17:52:27;8.27;;;7.97;;
30080;SDS011;16902;50.816;12.828;2023-10-08T17:57:29;8.98;;;8.57;;
30080;SDS011;16902;50.816;12.828;2023-10-08T18:02:31;7.40;;;7.10;;
30080;SDS011;16902;50.816;12.828;2023-10-08T18:07:33;8.73;;;8.35;;
30080;SDS011;16902;50.816;12.828;2023-10-08T18:12:36;9.43;;;8.88;;
30080;SDS011;16902;50.816;12.828;2023-10-08T18:17:38;8.93;;;8.52;;
30080;SDS011;16902;50.816;12.828;2023-10-08T18:22:40;7.40;;;7.10;;
30080;SDS011;16902;50.816;12.828;2023-10-08T18:27:43;8.68;;;8.18;;
30080;SDS011;16902;50.816;12.828;2023-10-08T18:32:45;7.80;;;7.50;;
30080;SDS011;16902;50.816;12.828;2023-10-08T18:37:47;8.20;;;7.82;;
30080;SDS011;16902;50.816;12.828;2023-10-08T18:42:51;7.88;;;7.57;;
30080;SDS011;16902;50.816;12.828;2023-10-08T18:47:54;8.48;;;8.07;;
30080;SDS011;16902;50.816;12.828;2023-10-08T18:52:57;8.35;;;7.95;;
30080;SDS011;16902;50.816;12.828;2023-10-08T18:57:59;8.23;;;7.93;;
30080;SDS011;16902;50.816;12.828;2023-10-08T19:03:01;7.90;;;7.50;;
30080;SDS011;16902;50.816;12.828;2023-10-08T19:08:06;7.18;;;6.88;;
30080;SDS011;16902;50.816;12.828;2023-10-08T19:13:08;8.50;;;7.90;;
30080;SDS011;16902;50.816;12.828;2023-10-08T19:18:11;7.82;;;7.45;;
30080;SDS011;16902;50.816;12.828;2023-10-08T19:23:13;7.70;;;7.35;;
30080;SDS011;16902;50.816;12.828;2023-10-08T19:28:15;7.72;;;7.32;;
30080;SDS011;16902;50.816;12.828;2023-10-08T19:33:17;8.73;;;8.32;;
30080;SDS011;16902;50.816;12.828;2023-10-08T19:38:21;8.30;;;7.85;;
30080;SDS011;16902;50.816;12.828;2023-10-08T19:43:23;8.60;;;8.10;;
30080;SDS011;16902;50.816;12.828;2023-10-08T19:48:25;8.43;;;8.02;;
30080;SDS011;16902;50.816;12.828;2023-10-08T19:53:28;8.38;;;8.02;;
30080;SDS011;16902;50.816;12.828;2023-10-08T19:58:33;8.48;;;7.82;;
30080;SDS011;16902;50.816;12.828;2023-10-08T20:03:38;8.35;;;7.95;;
30080;SDS011;16902;50.816;12.828;2023-10-08T20:08:41;8.43;;;8.10;;
30080;SDS011;16902;50.816;12.828;2023-10-08T20:13:46;8.15;;;7.78;;
30080;SDS011;16902;50.816;12.828;2023-10-08T20:18:48;8.23;;;7.82;;
30080;SDS011;16902;50.816;12.828;2023-10-08T20:23:50;8.15;;;7.75;;
30080;SDS011;16902;50.816;12.828;2023-10-08T20:28:52;8.23;;;7.78;;
30080;SDS011;16902;50.816;12.828;2023-10-08T20:33:55;7.07;;;6.68;;
30080;SDS011;16902;50.816;12.828;2023-10-08T20:38:57;6.75;;;6.50;;
30080;SDS011;16902;50.816;12.828;2023-10-08T20:43:59;7.40;;;6.97;;
30080;SDS011;16902;50.816;12.828;2023-10-08T20:49:02;9.27;;;8.60;;
30080;SDS011;16902;50.816;12.828;2023-10-08T20:54:05;8.90;;;8.35;;
30080;SDS011;16902;50.816;12.828;2023-10-08T20:59:07;8.27;;;7.88;;
30080;SDS011;16902;50.816;12.828;2023-10-08T21:04:09;8.05;;;7.65;;
30080;SDS011;16902;50.816;12.828;2023-10-08T21:09:11;7.38;;;7.07;;
30080;SDS011;16902;50.816;12.828;2023-10-08T21:14:17;7.88;;;7.53;;
30080;SDS011;16902;50.816;12.828;2023-10-08T21:19:18;7.63;;;7.22;;
30080;SDS011;16902;50.816;12.828;2023-10-08T21:24:21;7.45;;;7.03;;
30080;SDS011;16902;50.816;12.828;2023-10-08T21:29:23;7.60;;;7.20;;
30080;SDS011;16902;50.816;12.828;2023-10-08T21:34:25;7.35;;;6.93;;
30080;SDS011;16902;50.816;12.828;2023-10-08T21:39:30;6.97;;;6.65;;
30080;SDS011;16902;50.816;12.828;2023-10-08T21:44:32;7.07;;;6.80;;
30080;SDS011;16902;50.816;12.828;2023-10-08T21:49:33;7.25;;;6.93;;
30080;SDS011;16902;50.816;12.828;2023-10-08T21:54:35;7.60;;;7.10;;
30080;SDS011;16902;50.816;12.828;2023-10-08T21:59:37;7.32;;;7.03;;
30080;SDS011;16902;50.816;12.828;2023-10-08T22:04:40;7.57;;;7.22;;
30080;SDS011;16902;50.816;12.828;2023-10-08T22:09:42;7.18;;;6.88;;
30080;SDS011;16902;50.816;12.828;2023-10-08T22:14:44;7.97;;;7.68;;
30080;SDS011;16902;50.816;12.828;2023-10-08T22:19:46;7.60;;;7.10;;
30080;SDS011;16902;50.816;12.828;2023-10-08T22:24:47;7.50;;;7.20;;
30080;SDS011;16902;50.816;12.828;2023-10-08T22:29:52;7.57;;;7.18;;
30080;SDS011;16902;50.816;12.828;2023-10-08T22:34:56;7.63;;;7.32;;
30080;SDS011;16902;50.816;12.828;2023-10-08T22:40:12;7.40;;;7.10;;
30080;SDS011;16902;50.816;12.828;2023-10-08T22:45:18;7.28;;;6.97;;
30080;SDS011;16902;50.816;12.828;2023-10-08T22:50:20;7.95;;;7.63;;
30080;SDS011;16902;50.816;12.828;2023-10-08T22:55:43;7.75;;;7.35;;
30080;SDS011;16902;50.816;12.828;2023-10-08T23:00:48;6.90;;;6.68;;
30080;SDS011;16902;50.816;12.828;2023-10-08T23:05:51;8.02;;;7.47;;
30080;SDS011;16902;50.816;12.828;2023-10-08T23:10:55;7.03;;;6.72;;
30080;SDS011;16902;50.816;12.828;2023-10-08T23:15:57;7.22;;;6.82;;
30080;SDS011;16902;50.816;12.828;2023-10-08T23:21:01;6.82;;;6.53;;
30080;SDS011;16902;50.816;12.828;2023-10-08T23:26:12;7.25;;;6.95;;
30080;SDS011;16902;50.816;12.828;2023-10-08T23:31:17;7.72;;;7.00;;
30080;SDS011;16902;50.816;12.828;2023-10-08T23:36:19;7.28;;;6.97;;
30080;SDS011;16902;50.816;12.828;2023-10-08T23:41:28;7.35;;;7.05;;
30080;SDS011;16902;50.816;12.828;2023-10-08T23:46:34;7.75;;;7.45;;
30080;SDS011;16902;50.816;12.828;2023-10-08T23:51:44;6.97;;;6.57;;
30080;SDS011;16902;50.816;12.828;2023-10-08T23:56:48;6.78;;;6.47;;
